Time;durP1;ratioP1;P1;durP2;ratioP2;P2;SDS_P1;SDS_P2;PMS_P1;PMS_P2;Temp;Humidity;BMP_temperature;BMP_pressure;BME280_temperature;BME280_humidity;BME280_pressure;Samples;Min_cycle;Max_cycle;Signal;HPM_P1;HPM_P2
2023/09/22 00:01:46;;;;;;;3.27;1.90;;;22.00;67.20;22.70;99157.00;;;;5011348;28;20613;-54
2023/09/22 00:04:12;;;;;;;1.83;1.73;;;21.90;67.00;22.60;99154.00;;;;5011891;28;20617;-55
2023/09/22 00:06:38;;;;;;;1.73;1.63;;;22.00;67.20;22.60;99154.00;;;;5011353;28;20188;-55
2023/09/22 00:09:09;;;;;;;2.03;1.80;;;22.00;67.00;22.60;99162.00;;;;5009899;28;20184;-55
2023/09/22 00:11:36;;;;;;;1.70;1.60;;;22.00;67.00;22.60;99163.00;;;;5010235;28;20246;-55
2023/09/22 00:14:02;;;;;;;1.80;1.70;;;21.90;67.00;22.50;99164.00;;;;5011432;28;20203;-54
2023/09/22 00:16:28;;;;;;;2.77;1.70;;;21.90;66.90;22.50;99164.00;;;;5011235;28;20176;-54
2023/09/22 00:18:54;;;;;;;1.70;1.60;;;21.90;66.60;22.50;99164.00;;;;5011051;28;20199;-54
2023/09/22 00:21:19;;;;;;;2.40;1.50;;;21.90;66.50;22.50;99176.00;;;;5011548;28;20574;-54
2023/09/22 00:23:46;;;;;;;1.60;1.50;;;21.90;66.50;22.40;99179.00;;;;5011632;28;20230;-54
2023/09/22 00:26:12;;;;;;;1.60;1.50;;;21.90;66.40;22.40;99179.00;;;;5011112;28;20502;-53
2023/09/22 00:28:37;;;;;;;1.70;1.60;;;21.80;66.10;22.40;99170.00;;;;5011019;28;20188;-54
2023/09/22 00:31:03;;;;;;;2.13;1.50;;;21.80;65.90;22.40;99173.00;;;;5011112;28;20231;-54
2023/09/22 00:33:29;;;;;;;1.67;1.57;;;21.80;66.00;22.30;99171.00;;;;5010911;28;20643;-55
2023/09/22 00:36:01;;;;;;;1.73;1.60;;;21.80;65.90;22.30;99164.00;;;;5010863;28;20553;-53
2023/09/22 00:38:27;;;;;;;1.83;1.60;;;21.80;65.90;22.30;99177.00;;;;5010844;28;20175;-54
2023/09/22 00:40:53;;;;;;;2.33;1.60;;;21.70;65.60;22.30;99174.00;;;;5009553;28;20218;-53
2023/09/22 00:43:18;;;;;;;1.70;1.60;;;21.70;65.60;22.20;99169.00;;;;5011169;28;20717;-54
2023/09/22 00:45:46;;;;;;;2.90;1.80;;;21.70;65.50;22.20;99172.00;;;;5010834;28;20187;-54
2023/09/22 00:48:20;;;;;;;1.60;1.50;;;21.70;65.50;22.20;99173.00;;;;5009451;28;20180;-54
2023/09/22 00:50:46;;;;;;;2.37;1.87;;;21.70;65.60;22.20;99168.00;;;;5010692;28;20210;-55
2023/09/22 00:53:12;;;;;;;2.50;1.70;;;21.60;65.40;22.20;99172.00;;;;5009139;28;20211;-54
2023/09/22 00:55:38;;;;;;;2.10;1.90;;;21.60;65.40;22.10;99159.00;;;;5009239;28;20187;-55
2023/09/22 00:58:03;;;;;;;1.87;1.70;;;21.60;65.20;22.10;99169.00;;;;5010668;28;20184;-53
2023/09/22 01:00:30;;;;;;;2.77;1.80;;;21.60;65.10;22.10;99175.00;;;;4993715;28;20582;-54
2023/09/22 01:02:56;;;;;;;2.00;1.80;;;21.60;65.40;22.10;99191.00;;;;4993457;28;20303;-54
2023/09/22 01:05:22;;;;;;;1.87;1.77;;;21.50;65.20;22.10;99188.00;;;;5009649;28;20172;-55
2023/09/22 01:07:48;;;;;;;1.90;1.70;;;21.50;65.10;22.10;99200.00;;;;5009140;28;20308;-54
2023/09/22 01:10:14;;;;;;;2.20;1.70;;;21.50;65.10;22.00;99197.00;;;;5010482;28;20283;-54
2023/09/22 01:12:40;;;;;;;1.63;1.53;;;21.50;66.00;22.00;99196.00;;;;5010845;28;20211;-55
2023/09/22 01:15:09;;;;;;;1.63;1.53;;;21.50;65.50;22.00;99195.00;;;;5009626;28;20708;-54
2023/09/22 01:17:35;;;;;;;1.70;1.60;;;21.40;65.50;22.00;99207.00;;;;5010149;28;20262;-54
2023/09/22 01:20:05;;;;;;;1.80;1.70;;;21.40;65.60;22.00;99200.00;;;;5010047;28;20278;-54
2023/09/22 01:22:33;;;;;;;1.87;1.70;;;21.40;65.70;22.00;99187.00;;;;5010139;28;20642;-54
2023/09/22 01:24:59;;;;;;;2.87;1.77;;;21.40;65.70;22.00;99193.00;;;;5009983;28;20621;-55
2023/09/22 01:27:25;;;;;;;1.90;1.80;;;21.40;65.70;22.00;99199.00;;;;5009233;28;20275;-54
2023/09/22 01:29:51;;;;;;;1.90;1.50;;;21.40;65.80;22.00;99193.00;;;;5020326;28;20254;-55
2023/09/22 01:32:17;;;;;;;1.83;1.70;;;21.40;65.70;22.00;99195.00;;;;5012277;28;20693;-55
2023/09/22 01:34:44;;;;;;;1.97;1.73;;;21.30;65.70;22.00;99187.00;;;;5007828;28;20224;-55
2023/09/22 01:37:09;;;;;;;2.13;1.80;;;21.30;65.90;22.00;99203.00;;;;5007209;28;20187;-55
2023/09/22 01:39:35;;;;;;;2.00;1.80;;;21.30;65.60;22.00;99208.00;;;;5007830;28;20491;-55
2023/09/22 01:42:01;;;;;;;1.90;1.80;;;21.30;65.70;21.70;99207.00;;;;5009357;28;20203;-55
2023/09/22 01:44:27;;;;;;;1.50;1.40;;;21.30;65.70;21.90;99207.00;;;;5021426;28;20270;-55
2023/09/22 01:46:53;;;;;;;2.20;1.70;;;21.30;65.60;21.90;99209.00;;;;5009972;28;20570;-54
2023/09/22 01:49:18;;;;;;;2.47;1.70;;;21.30;65.40;21.90;99206.00;;;;5008135;28;20186;-54
2023/09/22 01:51:44;;;;;;;1.70;1.60;;;21.20;65.40;21.90;99209.00;;;;5007981;28;20528;-54
2023/09/22 01:54:10;;;;;;;1.70;1.60;;;21.20;65.50;21.90;99221.00;;;;5007884;28;20199;-54
2023/09/22 01:56:35;;;;;;;1.80;1.70;;;21.20;65.50;21.90;99223.00;;;;5008126;28;20180;-55
2023/09/22 01:59:01;;;;;;;1.47;1.40;;;21.20;65.60;21.90;99222.00;;;;5007953;28;20195;-54
2023/09/22 02:01:27;;;;;;;1.50;1.40;;;21.20;65.70;21.80;99147.00;;;;5008014;28;20203;-55
2023/09/22 02:03:53;;;;;;;1.60;1.50;;;21.10;65.50;21.80;99220.00;;;;5008019;28;20670;-55
2023/09/22 02:06:18;;;;;;;1.77;1.67;;;21.20;65.70;21.80;99220.00;;;;5008310;28;20192;-54
2023/09/22 02:08:44;;;;;;;1.60;1.50;;;21.10;65.60;21.80;99224.00;;;;5007653;28;20689;-55
2023/09/22 02:11:12;;;;;;;2.00;1.80;;;21.10;65.70;21.80;99228.00;;;;5007839;28;20219;-55
2023/09/22 02:13:39;;;;;;;2.13;1.70;;;21.10;65.80;21.80;99212.00;;;;5007825;28;20204;-54
2023/09/22 02:16:05;;;;;;;1.47;1.37;;;21.20;66.00;21.80;99223.00;;;;5007929;28;20646;-54
2023/09/22 02:18:31;;;;;;;2.03;1.50;;;21.10;65.70;21.80;99147.00;;;;5010963;28;20239;-54
2023/09/22 02:20:57;;;;;;;1.97;1.77;;;21.10;65.60;21.80;99219.00;;;;5012751;28;20282;-54
2023/09/22 02:23:26;;;;;;;3.27;1.60;;;21.10;65.40;21.80;99214.00;;;;5009527;28;20195;-54
2023/09/22 02:25:51;;;;;;;1.60;1.30;;;21.10;65.30;21.80;99212.00;;;;5006315;28;20304;-54
2023/09/22 02:28:18;;;;;;;1.83;1.60;;;21.10;65.20;21.80;99203.00;;;;5007522;28;20694;-55
2023/09/22 02:30:43;;;;;;;1.80;1.70;;;21.10;65.20;21.80;99210.00;;;;5008724;28;20219;-55
2023/09/22 02:33:09;;;;;;;1.80;1.60;;;21.10;65.10;21.80;99206.00;;;;5009284;28;20273;-55
2023/09/22 02:35:35;;;;;;;1.70;1.60;;;21.00;65.80;21.80;99215.00;;;;5008750;28;20274;-54
2023/09/22 02:38:01;;;;;;;1.70;1.60;;;21.10;65.10;21.70;99218.00;;;;5006902;28;20191;-55
2023/09/22 02:40:27;;;;;;;1.70;1.60;;;21.10;65.10;21.70;99145.00;;;;5006995;28;20555;-54
2023/09/22 02:42:53;;;;;;;2.43;1.80;;;21.10;65.10;21.70;99216.00;;;;5006178;28;20182;-54
2023/09/22 02:45:19;;;;;;;1.53;1.40;;;21.00;65.00;21.70;99207.00;;;;5007400;28;20176;-54
2023/09/22 02:47:45;;;;;;;2.70;1.47;;;21.00;65.00;21.70;99208.00;;;;5007220;28;20210;-54
2023/09/22 02:50:15;;;;;;;1.70;1.60;;;21.00;65.00;21.70;99220.00;;;;5007146;28;20686;-54
2023/09/22 02:52:42;;;;;;;1.73;1.60;;;21.00;65.00;21.70;99225.00;;;;5007528;28;20202;-55
2023/09/22 02:55:09;;;;;;;1.80;1.70;;;21.00;65.00;21.70;99223.00;;;;5007218;28;20227;-54
2023/09/22 02:57:38;;;;;;;1.70;1.60;;;20.90;65.00;21.70;99239.00;;;;5007261;28;20197;-54
2023/09/22 03:00:14;;;;;;;1.60;1.50;;;21.00;65.00;21.60;99246.00;;;;5007246;28;20261;-55
2023/09/22 03:02:41;;;;;;;2.30;1.90;;;20.90;65.10;21.50;99228.00;;;;5008307;28;20211;-54
2023/09/22 03:05:08;;;;;;;2.77;1.73;;;20.90;65.20;21.60;99221.00;;;;5007148;28;20191;-55
2023/09/22 03:07:34;;;;;;;2.97;1.67;;;20.90;65.20;21.60;99223.00;;;;5008216;28;20729;-54
2023/09/22 03:09:59;;;;;;;4.27;1.80;;;20.90;65.60;21.50;99228.00;;;;5008393;28;20314;-54
2023/09/22 03:12:25;;;;;;;2.00;1.80;;;20.90;65.30;21.50;99226.00;;;;5008413;28;20188;-54
2023/09/22 03:14:52;;;;;;;1.60;1.50;;;20.80;65.10;21.50;99235.00;;;;5008073;28;20211;-54
2023/09/22 03:17:18;;;;;;;2.00;1.80;;;20.90;65.30;21.50;99230.00;;;;5007788;28;20184;-53
2023/09/22 03:19:44;;;;;;;4.77;2.00;;;20.80;65.10;21.50;99234.00;;;;5007927;28;20292;-54
2023/09/22 03:22:09;;;;;;;2.53;1.70;;;20.80;65.20;21.50;99239.00;;;;5008248;28;20195;-55
2023/09/22 03:24:35;;;;;;;1.90;1.70;;;20.80;65.10;21.50;99235.00;;;;5008259;28;20215;-54
2023/09/22 03:27:01;;;;;;;2.17;1.80;;;20.80;64.90;21.50;99223.00;;;;5010608;28;20183;-55
2023/09/22 03:29:27;;;;;;;1.87;1.50;;;20.80;64.90;21.40;99213.00;;;;5018934;28;20281;-55
2023/09/22 03:31:53;;;;;;;1.60;1.50;;;20.70;64.70;21.40;99216.00;;;;5008701;28;20203;-54
2023/09/22 03:34:18;;;;;;;2.07;1.90;;;20.70;64.70;21.40;99216.00;;;;5008724;28;20775;-54
2023/09/22 03:36:44;;;;;;;1.40;1.30;;;20.70;64.70;21.40;99210.00;;;;5008447;28;20314;-54
2023/09/22 03:39:12;;;;;;;1.57;1.47;;;20.70;64.70;21.40;99208.00;;;;5009122;28;20188;-54
2023/09/22 03:41:40;;;;;;;1.73;1.63;;;20.70;64.50;21.30;99216.00;;;;5007169;28;20191;-54
2023/09/22 03:44:07;;;;;;;1.97;1.43;;;20.70;64.50;21.30;99215.00;;;;5015283;28;20191;-53
2023/09/22 03:46:32;;;;;;;2.00;1.70;;;20.60;64.50;21.30;99209.00;;;;4998641;28;20215;-54
2023/09/22 03:48:58;;;;;;;2.03;1.63;;;20.60;64.40;21.30;99210.00;;;;5007301;28;20539;-54
2023/09/22 03:51:24;;;;;;;2.07;1.77;;;20.60;64.30;21.30;99209.00;;;;4992646;28;20223;-54
2023/09/22 03:53:50;;;;;;;1.77;1.50;;;20.60;64.30;21.30;99217.00;;;;5011367;28;20207;-54
2023/09/22 03:56:15;;;;;;;1.60;1.50;;;20.60;64.20;21.30;99205.00;;;;5010988;28;20627;-54
2023/09/22 03:58:42;;;;;;;1.87;1.60;;;20.70;64.20;21.30;99210.00;;;;5009541;28;20179;-54
2023/09/22 04:01:11;;;;;;;1.87;1.70;;;20.60;64.10;21.20;99211.00;;;;5009097;28;20572;-54
2023/09/22 04:03:36;;;;;;;3.53;1.47;;;20.60;64.10;21.20;99207.00;;;;5003673;28;20215;-54
2023/09/22 04:06:04;;;;;;;2.97;1.63;;;20.60;64.20;21.20;99209.00;;;;5011614;28;20189;-54
2023/09/22 04:08:30;;;;;;;1.53;1.43;;;20.60;64.30;21.20;99205.00;;;;5005183;28;20218;-54
2023/09/22 04:10:56;;;;;;;1.80;1.70;;;20.50;64.30;21.20;99208.00;;;;5011711;28;20553;-54
2023/09/22 04:13:24;;;;;;;1.53;1.43;;;20.50;64.40;21.20;99216.00;;;;5011644;28;20246;-55
2023/09/22 04:16:00;;;;;;;5.20;1.60;;;20.60;64.70;21.20;99224.00;;;;5012015;28;20669;-55
2023/09/22 04:18:29;;;;;;;4.40;1.83;;;20.50;64.50;21.10;99217.00;;;;5011693;28;20245;-54
2023/09/22 04:20:56;;;;;;;5.40;1.80;;;20.50;64.50;20.90;99221.00;;;;5012049;28;20199;-55
2023/09/22 04:23:24;;;;;;;7.07;2.07;;;20.50;64.80;21.10;99212.00;;;;5011291;28;20203;-54
2023/09/22 04:25:53;;;;;;;5.67;1.90;;;20.50;64.70;21.10;99229.00;;;;5011847;28;20187;-55
2023/09/22 04:28:23;;;;;;;3.40;1.70;;;20.50;64.70;21.10;99232.00;;;;5011875;28;20192;-55
2023/09/22 04:30:49;;;;;;;2.50;1.77;;;20.40;64.40;21.10;99227.00;;;;5010684;28;20209;-54
2023/09/22 04:33:15;;;;;;;1.83;1.50;;;20.40;64.40;21.00;99232.00;;;;5007792;28;20201;-53
2023/09/22 04:35:41;;;;;;;2.77;1.90;;;20.40;64.40;21.00;99236.00;;;;5011649;28;20234;-54
2023/09/22 04:38:08;;;;;;;2.10;1.90;;;20.30;64.30;21.00;99254.00;;;;5011071;28;20179;-54
2023/09/22 04:40:36;;;;;;;3.77;2.10;;;20.30;64.30;21.00;99251.00;;;;5011699;28;20214;-53
2023/09/22 04:43:11;;;;;;;2.07;1.87;;;20.30;64.30;21.00;99262.00;;;;5011180;28;20180;-53
2023/09/22 04:45:40;;;;;;;2.33;1.87;;;20.30;64.30;21.00;99262.00;;;;5011268;28;20183;-54
2023/09/22 04:48:07;;;;;;;2.13;1.87;;;20.30;64.30;20.90;99254.00;;;;5010358;28;20246;-54
2023/09/22 04:50:33;;;;;;;2.03;1.80;;;20.40;64.40;20.90;99249.00;;;;5011060;28;20208;-55
2023/09/22 04:53:00;;;;;;;2.10;1.83;;;20.30;64.30;20.90;99247.00;;;;5003866;28;20206;-54
2023/09/22 04:55:26;;;;;;;3.07;1.80;;;20.30;64.30;20.90;99238.00;;;;5011242;28;20221;-53
2023/09/22 04:57:52;;;;;;;1.90;1.80;;;20.30;64.30;20.90;99235.00;;;;5010943;28;20640;-54
2023/09/22 05:00:21;;;;;;;2.70;1.80;;;20.30;64.30;20.90;99229.00;;;;5011300;28;20215;-55
2023/09/22 05:02:47;;;;;;;1.60;1.50;;;20.30;64.50;20.80;99249.00;;;;5009528;28;20198;-54
2023/09/22 05:05:16;;;;;;;3.97;2.23;;;20.20;64.50;20.80;99255.00;;;;5011425;28;20642;-54
2023/09/22 05:07:42;;;;;;;5.07;2.10;;;20.20;64.70;20.80;99261.00;;;;5011371;28;20283;-55
2023/09/22 05:10:08;;;;;;;4.83;1.93;;;20.20;64.60;20.80;99261.00;;;;5011226;28;20288;-54
2023/09/22 05:12:35;;;;;;;3.20;2.00;;;20.20;64.60;20.80;99263.00;;;;5010776;28;20698;-55
2023/09/22 05:15:02;;;;;;;4.10;2.03;;;20.20;64.60;20.80;99267.00;;;;5010981;28;20214;-54
2023/09/22 05:17:28;;;;;;;2.43;1.70;;;20.20;64.60;20.80;99273.00;;;;5010915;28;20435;-58
2023/09/22 05:19:54;;;;;;;4.57;1.93;;;20.20;64.60;20.80;99270.00;;;;5009031;28;20287;-54
2023/09/22 05:22:23;;;;;;;2.67;1.80;;;20.10;64.40;20.80;99267.00;;;;5009849;28;20263;-54
2023/09/22 05:24:48;;;;;;;2.17;1.70;;;20.20;64.50;20.80;99271.00;;;;5010924;28;20237;-55
2023/09/22 05:27:15;;;;;;;3.43;1.70;;;20.10;64.30;20.70;99269.00;;;;5021230;28;20191;-54
2023/09/22 05:29:44;;;;;;;1.60;1.50;;;20.10;64.40;20.70;99270.00;;;;5011671;28;20754;-54
2023/09/22 05:32:10;;;;;;;2.60;2.00;;;20.20;64.50;20.70;99274.00;;;;5010301;28;20233;-54
2023/09/22 05:34:37;;;;;;;3.17;1.87;;;20.10;64.50;20.70;99266.00;;;;5011203;28;20721;-54
2023/09/22 05:37:02;;;;;;;2.97;1.77;;;20.10;64.40;20.70;99266.00;;;;5010649;28;20319;-53
2023/09/22 05:39:28;;;;;;;3.13;1.60;;;20.10;64.60;20.60;99266.00;;;;5012570;28;20223;-55
2023/09/22 05:41:54;;;;;;;2.93;1.90;;;20.00;64.60;20.60;99268.00;;;;5018821;28;20209;-54
2023/09/22 05:44:20;;;;;;;2.10;1.90;;;20.00;64.50;20.60;99275.00;;;;5011585;28;20407;-54
2023/09/22 05:46:46;;;;;;;2.37;1.83;;;20.00;64.60;20.60;99283.00;;;;5010528;28;20210;-53
2023/09/22 05:49:14;;;;;;;1.63;1.53;;;20.00;64.60;20.60;99294.00;;;;5010283;28;20216;-54
2023/09/22 05:51:43;;;;;;;2.00;1.73;;;20.00;64.60;20.60;99286.00;;;;5010380;28;20315;-53
2023/09/22 05:54:09;;;;;;;2.10;1.67;;;20.00;64.60;20.60;99288.00;;;;5010467;28;20198;-55
2023/09/22 05:56:35;;;;;;;2.03;1.83;;;20.00;64.60;20.60;99296.00;;;;5011115;28;20209;-55
2023/09/22 05:59:01;;;;;;;2.37;1.60;;;20.00;64.70;20.50;99294.00;;;;5010577;28;20182;-55
2023/09/22 06:01:27;;;;;;;2.03;1.60;;;20.00;64.90;20.60;99285.00;;;;5009282;28;20257;-55
2023/09/22 06:03:53;;;;;;;2.70;1.90;;;20.00;65.60;20.50;99285.00;;;;5010222;28;20192;-55
2023/09/22 06:06:19;;;;;;;4.60;1.70;;;19.90;64.90;20.50;99277.00;;;;5010239;28;20190;-55
2023/09/22 06:08:45;;;;;;;1.93;1.70;;;19.90;64.90;20.50;99271.00;;;;5009750;28;20261;-54
2023/09/22 06:11:11;;;;;;;2.60;1.80;;;19.90;64.90;20.50;99273.00;;;;5009825;28;20658;-54
2023/09/22 06:13:37;;;;;;;2.00;1.80;;;19.90;65.00;20.50;99290.00;;;;5009826;28;20203;-54
2023/09/22 06:16:04;;;;;;;1.50;1.40;;;19.90;65.00;20.50;99284.00;;;;5011912;28;20191;-54
2023/09/22 06:18:32;;;;;;;2.60;1.73;;;19.90;65.00;20.50;99294.00;;;;5011754;28;20207;-55
2023/09/22 06:21:00;;;;;;;1.60;1.50;;;19.90;65.00;20.50;99296.00;;;;5009444;28;20552;-53
2023/09/22 06:23:27;;;;;;;2.20;1.70;;;19.80;65.00;20.50;99298.00;;;;5008195;28;20209;-54
2023/09/22 06:25:56;;;;;;;1.83;1.70;;;19.90;65.10;20.40;99307.00;;;;5009889;28;20306;-53
2023/09/22 06:28:22;;;;;;;1.90;1.70;;;19.90;65.00;20.40;99296.00;;;;5009624;28;20209;-55
2023/09/22 06:30:48;;;;;;;1.83;1.63;;;19.80;64.90;20.40;99294.00;;;;5009144;28;20207;-54
2023/09/22 06:33:16;;;;;;;2.23;1.70;;;19.80;65.10;20.40;99300.00;;;;5009162;28;20732;-55
2023/09/22 06:35:43;;;;;;;2.33;1.77;;;19.80;66.00;20.40;99294.00;;;;5009285;28;20710;-55
2023/09/22 06:38:13;;;;;;;2.30;1.70;;;19.80;65.20;20.20;99305.00;;;;5009394;28;20186;-54
2023/09/22 06:40:39;;;;;;;2.90;1.97;;;19.80;65.30;20.40;99313.00;;;;5009520;28;20205;-54
2023/09/22 06:43:05;;;;;;;1.70;1.60;;;19.80;65.40;20.40;99318.00;;;;5009384;28;20302;-53
2023/09/22 06:45:36;;;;;;;2.43;1.70;;;19.80;65.60;20.30;99313.00;;;;5009676;28;20190;-54
2023/09/22 06:48:05;;;;;;;3.80;1.87;;;19.70;65.50;20.30;99295.00;;;;5009446;28;20240;-54
2023/09/22 06:50:34;;;;;;;2.20;1.80;;;19.70;65.40;20.30;99304.00;;;;5009866;28;20581;-54
2023/09/22 06:53:00;;;;;;;1.80;1.70;;;19.70;65.60;20.30;99307.00;;;;5009210;28;20207;-53
2023/09/22 06:55:25;;;;;;;2.87;1.80;;;19.70;65.70;20.30;99319.00;;;;5009256;28;20244;-54
2023/09/22 06:57:52;;;;;;;2.30;1.70;;;19.70;65.60;20.30;99316.00;;;;5009205;28;20728;-54
2023/09/22 07:00:20;;;;;;;2.10;1.73;;;19.70;65.80;20.30;99318.00;;;;5008846;28;20198;-54
2023/09/22 07:02:47;;;;;;;2.73;1.80;;;19.70;65.90;20.30;99333.00;;;;5006538;28;20186;-55
2023/09/22 07:05:14;;;;;;;3.10;2.20;;;19.70;65.90;20.30;99336.00;;;;5009088;28;20313;-55
2023/09/22 07:07:40;;;;;;;2.97;2.10;;;19.70;66.40;20.30;99333.00;;;;5008625;28;20195;-54
2023/09/22 07:10:10;;;;;;;1.97;1.77;;;19.70;66.40;20.30;99341.00;;;;5008721;28;20573;-54
2023/09/22 07:12:37;;;;;;;2.27;1.90;;;19.70;66.20;20.30;99338.00;;;;5009207;28;20175;-54
2023/09/22 07:15:04;;;;;;;3.70;1.70;;;19.70;66.10;20.30;99342.00;;;;5008902;28;20938;-55
2023/09/22 07:17:31;;;;;;;2.80;1.73;;;19.70;66.10;20.20;99350.00;;;;5009165;28;20194;-55
2023/09/22 07:19:57;;;;;;;2.17;1.87;;;19.70;66.30;20.20;99371.00;;;;5004504;28;20199;-55
2023/09/22 07:22:23;;;;;;;2.10;1.90;;;19.60;66.20;20.20;99364.00;;;;5008602;28;20178;-55
2023/09/22 07:24:51;;;;;;;2.50;1.90;;;19.60;66.30;20.20;99364.00;;;;5020679;28;20230;-55
2023/09/22 07:27:17;;;;;;;2.07;1.80;;;19.60;66.20;20.20;99364.00;;;;5021848;28;20186;-54
2023/09/22 07:29:43;;;;;;;3.00;2.03;;;19.60;66.20;20.20;99370.00;;;;5013362;28;20189;-54
2023/09/22 07:32:09;;;;;;;2.30;1.70;;;19.60;66.20;20.20;99372.00;;;;5012335;28;20187;-53
2023/09/22 07:34:34;;;;;;;1.70;1.60;;;19.60;66.20;20.20;99369.00;;;;5012571;28;20689;-54
2023/09/22 07:37:00;;;;;;;2.93;1.97;;;19.60;66.20;20.20;99367.00;;;;5012979;28;20187;-54
2023/09/22 07:39:26;;;;;;;2.30;1.67;;;19.60;66.30;20.10;99371.00;;;;5018248;28;20685;-54
2023/09/22 07:41:52;;;;;;;2.47;1.77;;;19.60;66.50;20.10;99374.00;;;;5014081;28;20287;-54
2023/09/22 07:44:21;;;;;;;2.83;1.70;;;19.50;66.30;20.10;99375.00;;;;5012396;28;20194;-54
2023/09/22 07:46:48;;;;;;;3.27;1.77;;;19.50;66.20;20.10;99375.00;;;;5003258;28;20240;-54
2023/09/22 07:49:15;;;;;;;2.43;1.70;;;19.50;66.30;20.10;99370.00;;;;5012081;28;20187;-54
2023/09/22 07:51:41;;;;;;;2.43;1.70;;;19.50;66.30;20.10;99374.00;;;;5011848;28;20201;-54
2023/09/22 07:54:08;;;;;;;2.57;1.57;;;19.50;66.40;20.10;99381.00;;;;5010890;28;20218;-54
2023/09/22 07:56:34;;;;;;;2.10;1.87;;;19.50;66.50;20.10;99380.00;;;;5012340;28;20177;-54
2023/09/22 07:59:02;;;;;;;1.63;1.53;;;19.50;66.60;20.10;99390.00;;;;5012400;28;20684;-54
2023/09/22 08:01:27;;;;;;;1.70;1.60;;;19.50;66.60;20.10;99388.00;;;;5011239;28;20199;-54
2023/09/22 08:03:53;;;;;;;2.33;1.80;;;19.40;66.60;20.00;99388.00;;;;5011560;28;20258;-53
2023/09/22 08:06:19;;;;;;;1.67;1.57;;;19.50;66.80;19.80;99382.00;;;;5011852;28;20192;-53
2023/09/22 08:08:49;;;;;;;2.60;1.70;;;19.50;66.80;20.00;99392.00;;;;5011938;28;20187;-55
2023/09/22 08:11:17;;;;;;;1.70;1.60;;;19.50;66.90;20.00;99390.00;;;;5010525;28;20222;-54
2023/09/22 08:13:46;;;;;;;2.13;1.60;;;19.50;67.00;20.00;99402.00;;;;5011144;28;20218;-54
2023/09/22 08:16:13;;;;;;;1.83;1.70;;;19.40;67.00;20.00;99391.00;;;;5012151;28;20212;-54
2023/09/22 08:18:40;;;;;;;1.97;1.70;;;19.40;67.10;20.00;99399.00;;;;5013275;28;20195;-54
2023/09/22 08:21:09;;;;;;;2.00;1.77;;;19.40;67.00;20.00;99393.00;;;;5011386;28;20294;-54
2023/09/22 08:23:34;;;;;;;2.03;1.70;;;19.50;67.10;20.00;99396.00;;;;5013068;28;20192;-54
2023/09/22 08:26:08;;;;;;;1.83;1.50;;;19.40;67.20;20.00;99388.00;;;;5010347;28;20189;-55
2023/09/22 08:28:33;;;;;;;2.17;1.80;;;19.40;67.50;20.00;99398.00;;;;5011594;28;20225;-54
2023/09/22 08:30:59;;;;;;;2.83;1.60;;;19.40;67.30;20.00;99396.00;;;;5010956;28;20213;-55
2023/09/22 08:33:25;;;;;;;2.53;1.63;;;19.50;67.30;20.00;99401.00;;;;5010614;28;20186;-54
2023/09/22 08:35:51;;;;;;;2.40;1.70;;;19.50;67.10;20.10;99389.00;;;;5010305;28;20195;-54
2023/09/22 08:38:18;;;;;;;3.10;1.67;;;19.60;67.00;20.10;99388.00;;;;5009745;28;20188;-55
2023/09/22 08:40:46;;;;;;;3.70;1.73;;;19.60;66.90;20.20;99388.00;;;;5011409;28;20201;-54
2023/09/22 08:43:12;;;;;;;2.60;1.70;;;19.60;66.90;20.20;99386.00;;;;5011203;28;20606;-54
2023/09/22 08:45:38;;;;;;;3.37;1.70;;;19.70;66.80;20.20;99382.00;;;;5010731;28;20254;-54
2023/09/22 08:48:04;;;;;;;3.57;1.97;;;19.70;66.80;20.30;99378.00;;;;4993155;28;20249;-55
2023/09/22 08:50:30;;;;;;;5.13;1.80;;;19.70;66.80;20.30;99392.00;;;;5010255;28;20206;-54
2023/09/22 08:52:56;;;;;;;5.97;1.90;;;19.70;66.90;20.30;99383.00;;;;4992990;28;20194;-53
2023/09/22 08:55:23;;;;;;;10.13;2.50;;;19.70;67.20;20.30;99381.00;;;;4987601;28;20529;-54
2023/09/22 08:57:49;;;;;;;16.80;3.30;;;19.70;67.20;20.30;99361.00;;;;5011699;28;20184;-55
2023/09/22 09:00:26;;;;;;;16.67;3.43;;;19.70;67.30;20.40;99368.00;;;;5010506;28;20721;-54
2023/09/22 09:02:54;;;;;;;20.63;3.70;;;19.70;67.40;20.40;99365.00;;;;5009177;28;20182;-54
2023/09/22 09:05:30;;;;;;;14.63;3.53;;;19.70;67.40;20.40;99374.00;;;;5013722;28;20553;-55
2023/09/22 09:08:13;;;;;;;20.50;3.17;;;19.80;67.50;20.40;99370.00;;;;5008536;28;20239;-55
2023/09/22 09:10:39;;;;;;;12.03;3.13;;;19.70;67.30;20.40;99371.00;;;;5009527;28;20225;-54
2023/09/22 09:13:06;;;;;;;15.53;3.40;;;19.80;67.40;20.40;99371.00;;;;5009987;28;20240;-54
2023/09/22 09:15:49;;;;;;;16.40;3.20;;;19.80;67.40;20.40;99373.00;;;;5002772;28;20225;-54
2023/09/22 09:18:19;;;;;;;15.23;3.27;;;19.80;67.40;20.40;99373.00;;;;5010050;28;20209;-53
2023/09/22 09:20:47;;;;;;;14.40;4.23;;;19.80;67.50;20.40;99369.00;;;;5010075;28;20683;-55
2023/09/22 09:23:15;;;;;;;19.17;6.50;;;19.80;67.70;20.50;99367.00;;;;5017060;28;20210;-54
2023/09/22 09:25:53;;;;;;;16.13;7.10;;;19.80;68.20;20.50;99377.00;;;;5014947;28;20191;-53
2023/09/22 09:28:18;;;;;;;19.77;8.70;;;19.80;68.10;20.50;99374.00;;;;5010344;28;20200;-54
2023/09/22 09:30:52;;;;;;;28.53;11.00;;;19.90;69.10;20.50;99376.00;;;;5010169;28;20220;-54
2023/09/22 09:33:22;;;;;;;31.27;10.90;;;19.80;68.60;20.50;99374.00;;;;5015415;28;20179;-55
2023/09/22 09:35:47;;;;;;;30.83;10.60;;;19.90;68.60;20.50;99372.00;;;;5013242;28;20188;-54
2023/09/22 09:38:13;;;;;;;25.10;10.07;;;19.90;69.20;20.50;99358.00;;;;5010699;28;20441;-55
2023/09/22 09:40:39;;;;;;;25.27;9.53;;;19.90;69.20;20.50;99375.00;;;;5013448;28;20201;-54
2023/09/22 09:43:06;;;;;;;23.80;9.80;;;19.90;69.10;20.60;99366.00;;;;5003779;28;20227;-54
2023/09/22 09:45:33;;;;;;;21.70;9.13;;;19.90;69.10;20.60;99384.00;;;;5008718;28;20213;-54
2023/09/22 09:47:59;;;;;;;23.33;8.70;;;19.90;69.30;20.60;99388.00;;;;5008287;28;20224;-54
2023/09/22 09:50:24;;;;;;;21.97;8.80;;;19.90;69.20;20.60;99375.00;;;;4996227;28;20766;-54
2023/09/22 09:52:56;;;;;;;17.83;7.50;;;19.90;69.00;20.60;99369.00;;;;4975803;28;20191;-54
2023/09/22 09:55:24;;;;;;;19.93;7.63;;;19.90;68.80;20.60;99383.00;;;;5007617;28;20353;-54
2023/09/22 09:57:53;;;;;;;16.07;7.43;;;19.90;68.70;20.60;99383.00;;;;4993239;28;20181;-54
2023/09/22 10:00:19;;;;;;;16.53;7.47;;;19.90;68.80;20.60;99390.00;;;;5013335;28;20217;-54
2023/09/22 10:02:48;;;;;;;12.70;6.77;;;20.00;68.80;20.60;99384.00;;;;5013182;28;20223;-60
2023/09/22 10:05:21;;;;;;;15.50;6.90;;;20.00;68.70;20.70;99388.00;;;;5009366;28;20231;-55
2023/09/22 10:07:51;;;;;;;14.67;6.63;;;20.00;68.70;20.70;99397.00;;;;5012507;28;20187;-54
2023/09/22 10:10:20;;;;;;;12.13;6.43;;;20.00;68.70;20.70;99397.00;;;;5008858;28;20209;-54
2023/09/22 10:12:46;;;;;;;15.93;6.40;;;20.00;68.70;20.70;99395.00;;;;5007798;28;20281;-55
2023/09/22 10:15:12;;;;;;;18.77;6.63;;;20.00;68.60;20.70;99395.00;;;;4991452;28;20210;-55
2023/09/22 10:17:38;;;;;;;15.60;6.47;;;20.00;68.60;20.70;99394.00;;;;5008913;28;20192;-53
2023/09/22 10:20:07;;;;;;;10.90;6.00;;;20.10;68.70;20.70;99397.00;;;;5008932;28;20689;-54
2023/09/22 10:22:33;;;;;;;12.53;5.93;;;20.00;68.60;20.70;99400.00;;;;5008636;28;20549;-53
2023/09/22 10:25:14;;;;;;;14.40;6.40;;;20.00;68.60;20.80;99398.00;;;;5007746;28;20606;-53
2023/09/22 10:27:57;;;;;;;11.73;5.90;;;20.10;68.90;20.70;99410.00;;;;5009049;28;20210;-54
2023/09/22 10:30:44;;;;;;;13.53;6.37;;;20.00;68.80;20.80;99406.00;;;;5008443;28;20199;-54
2023/09/22 10:33:16;;;;;;;9.20;5.20;;;20.10;68.80;20.80;99424.00;;;;5008732;28;20187;-54
2023/09/22 10:35:42;;;;;;;10.37;5.50;;;20.10;68.80;20.80;99409.00;;;;4998640;28;20775;-53
2023/09/22 10:38:10;;;;;;;11.30;5.70;;;20.10;68.80;20.80;99412.00;;;;5008295;28;20183;-54
2023/09/22 10:40:36;;;;;;;10.20;5.40;;;20.10;69.00;20.80;99424.00;;;;5009704;28;20192;-53
2023/09/22 10:43:03;;;;;;;13.13;5.43;;;20.10;68.80;20.80;99417.00;;;;5009604;28;20220;-54
2023/09/22 10:45:29;;;;;;;10.07;5.17;;;20.10;69.10;20.80;99418.00;;;;5008951;28;20182;-53
2023/09/22 10:47:57;;;;;;;11.07;5.23;;;20.10;69.00;20.80;99418.00;;;;5009345;28;20199;-59
2023/09/22 10:50:30;;;;;;;10.53;5.37;;;20.10;69.10;20.80;99419.00;;;;5009461;28;20348;-53
2023/09/22 10:53:05;;;;;;;9.30;4.67;;;20.10;69.10;20.80;99413.00;;;;5008968;28;20189;-54